Flight Track Log - Related Links

Times and Time Zones

All times are in EDT time to prevent confusion due to time zone crossing. See the N662US flight status page for this flight to view local times or setup timezone preferences in your user account.

Time Position Orientation Groundspeed Altitude Reporting Facility
EDT Latitude Longitude Course Direction KTS MPH feet Rate Location/Type
Tue 06:56:00 PM 13.7612 100.8489 51° Northeast  Level Estimated
Tue 06:57:00 PM 13.8412 100.9505 51° Northeast  Level Estimated
Tue 06:58:00 PM 13.9212 101.0523 51° Northeast  Level Estimated
Tue 06:59:00 PM 14.0011 101.1541 51° Northeast  Level Estimated
Tue 06:59:04 PM 13.6530 100.7300 51° Northeast 191 220 1,800  Level FlightAware ADS-B
Tue 06:59:17 PM 13.6440 100.7280 192° South 189 217 2,300 2,182 Climbing FlightAware ADS-B
Tue 06:59:48 PM 13.6140 100.7200 195° South 197 227 3,400 1,745 Climbing FlightAware ADS-B
Tue 07:00:12 PM 13.5920 100.7160 190° South 219 252 3,900 1,125 Climbing FlightAware ADS-B
Tue 07:00:36 PM 13.5660 100.7270 158° South 269 310 4,300 1,200 Climbing FlightAware ADS-B
Tue 07:00:52 PM 13.5510 100.7430 134° Southeast 290 334 4,700 1,950 Climbing FlightAware ADS-B
Tue 07:01:16 PM 13.5310 100.7700 127° Southeast 303 349 5,600 2,308 Climbing FlightAware ADS-B
Tue 07:01:44 PM 13.5100 100.8060 121° Southeast 318 366 6,700 2,571 Climbing FlightAware ADS-B
Tue 07:01:58 PM 13.5070 100.8250 99° East 320 368 7,400 2,857 Climbing FlightAware ADS-B
Tue 07:02:26 PM 13.5170 100.8690 77° East 331 381 8,700 2,679 Climbing FlightAware ADS-B
Tue 07:02:54 PM 13.5390 100.9050 58° Northeast 332 382 9,900 2,219 Climbing FlightAware ADS-B
Tue 07:03:39 PM 13.5720 100.9690 62° Northeast 362 417 11,400 2,047 Climbing FlightAware ADS-B
Tue 07:04:19 PM 13.5970 101.0310 67° East 380 437 12,800 1,880 Climbing FlightAware ADS-B
Tue 07:05:02 PM 13.6310 101.1120 67° East 421 484 14,000 2,197 Climbing FlightAware ADS-B
Tue 07:05:30 PM 13.6520 101.1620 67° East 424 488 15,400 2,182 Climbing FlightAware ADS-B
Tue 07:06:19 PM 13.6790 101.2280 67° East 435 501 16,800 2,114 Climbing FlightAware ADS-B
Tue 07:06:58 PM 13.7120 101.3080 67° East 446 513 18,500 2,727 Climbing FlightAware ADS-B
Tue 07:07:36 PM 13.7530 101.4070 67° East 458 527 20,300 2,488 Climbing FlightAware ADS-B
Tue 07:08:20 PM 13.7910 101.4980 67° East 467 537 21,900 2,071 Climbing FlightAware ADS-B
Tue 07:09:00 PM 13.8260 101.5830 67° East 474 545 23,200 1,929 Climbing FlightAware ADS-B
Tue 07:09:44 PM 13.8630 101.6730 67° East 479 551 24,600 1,902 Climbing FlightAware ADS-B
Tue 07:10:22 PM 13.8970 101.7550 67° East 486 559 25,800 1,610 Climbing FlightAware ADS-B
Tue 07:11:06 PM 13.9350 101.8480 67° East 496 571 26,800 1,390 Climbing FlightAware ADS-B
Tue 07:11:44 PM 13.9700 101.9320 67° East 505 581 27,700 1,408 Climbing FlightAware ADS-B
Tue 07:12:44 PM 14.0250 102.0660 67° East 514 592 29,100 1,558 Climbing FlightAware ADS-B
Tue 07:13:28 PM 14.0650 102.1630 67° East 511 588 30,400 1,857 Climbing FlightAware ADS-B
Tue 07:14:08 PM 14.0970 102.2570 71° East 504 580 31,700 1,857 Climbing FlightAware ADS-B
Tue 07:14:52 PM 14.1320 102.3580 70° East 498 573 33,000 1,663 Climbing FlightAware ADS-B
Tue 07:15:31 PM 14.1630 102.4450 70° East 495 570 34,000 1,462 Climbing FlightAware ADS-B
Tue 07:16:10 PM 14.1920 102.5280 70° East 490 564 34,900 1,271 Climbing FlightAware ADS-B
Tue 07:16:56 PM 14.2280 102.6290 70° East 485 558 35,800 1,116 Climbing FlightAware ADS-B
Tue 07:17:36 PM 14.2580 102.7160 70° East 483 556 36,500 857 Climbing FlightAware ADS-B
Tue 07:18:20 PM 14.2920 102.8110 70° East 482 555 37,000 357 Climbing FlightAware ADS-B
Tue 07:19:00 PM 14.3230 102.9000 70° East 482 555 37,000  Level FlightAware ADS-B
Tue 07:19:38 PM 14.3510 102.9800 70° East 482 555 37,000  Level FlightAware ADS-B
Tue 07:20:17 PM 14.3810 103.0660 70° East 482 555 37,000  Level FlightAware ADS-B
Tue 07:21:02 PM 14.4150 103.1620 70° East 483 556 37,000  Level FlightAware ADS-B
Tue 07:21:34 PM 14.4390 103.2310 70° East 483 556 37,000  Level FlightAware ADS-B
Tue 07:22:18 PM 14.4730 103.3290 70° East 484 557 37,000  Level FlightAware ADS-B
Tue 07:22:58 PM 14.5020 103.4140 71° East 484 557 37,000  Level FlightAware ADS-B
Tue 07:23:42 PM 14.5350 103.5100 70° East 485 558 37,000  Level FlightAware ADS-B
Tue 07:24:22 PM 14.5660 103.5970 70° East 486 559 37,000  Level FlightAware ADS-B
Tue 07:25:07 PM 14.6000 103.6980 71° East 488 562 37,000  Level FlightAware ADS-B
Tue 07:25:47 PM 14.6310 103.7850 70° East 488 562 37,000  Level FlightAware ADS-B
Tue 07:26:23 PM 14.6580 103.8650 71° East 488 562 37,000  Level FlightAware ADS-B
Tue 07:27:07 PM 14.6920 103.9620 70° East 490 564 37,000  Level FlightAware ADS-B
Tue 07:27:46 PM 14.7210 104.0480 71° East 491 565 37,000  Level FlightAware ADS-B
Tue 07:28:24 PM 14.7490 104.1300 71° East 491 565 37,000  Level FlightAware ADS-B
Tue 07:29:04 PM 14.7800 104.2210 71° East 492 566 37,000  Level FlightAware ADS-B
Tue 07:29:42 PM 14.8080 104.3030 71° East 491 565 37,000  Level FlightAware ADS-B
Tue 07:30:28 PM 14.8430 104.4050 70° East 491 565 37,000  Level FlightAware ADS-B
Tue 07:31:08 PM 14.8740 104.4960 71° East 492 566 37,000  Level FlightAware ADS-B
Tue 07:31:53 PM 14.9080 104.5960 71° East 493 567 37,000  Level FlightAware ADS-B
Tue 07:32:32 PM 14.9370 104.6810 71° East 493 567 37,000  Level FlightAware ADS-B
Tue 07:33:14 PM 14.9680 104.7740 71° East 492 566 37,000  Level FlightAware ADS-B
Tue 07:33:58 PM 15.0010 104.8720 71° East 493 567 37,000  Level FlightAware ADS-B
Tue 07:34:41 PM 15.0340 104.9680 70° East 492 566 37,000  Level FlightAware ADS-B
Tue 07:35:22 PM 15.0640 105.0590 71° East 491 565 37,000  Level FlightAware ADS-B
Tue 07:36:02 PM 15.0950 105.1500 71° East 489 563 37,000  Level FlightAware ADS-B
Tue 07:36:44 PM 15.1250 105.2400 71° East 488 562 37,000  Level FlightAware ADS-B
Tue 07:37:30 PM 15.1600 105.3420 70° East 489 563 37,000  Level FlightAware ADS-B
Tue 07:38:11 PM 15.1900 105.4350 72° East 489 563 37,000  Level FlightAware ADS-B
Tue 07:38:52 PM 15.2200 105.5210 70° East 489 563 37,000  Level FlightAware ADS-B
Tue 07:39:50 PM 15.2600 105.6400 71° East 490 564 37,000  Level FlightAware ADS-B
Tue 07:40:27 PM 15.2850 105.7100 70° East 490 564 37,000  Level FlightAware ADS-B
Tue 07:41:06 PM 15.3190 105.8200 72° East 493 567 37,000  Level FlightAware ADS-B
Tue 07:41:36 PM 15.3410 105.8870 71° East 494 568 37,000  Level FlightAware ADS-B
Tue 07:42:16 PM 15.3660 105.9630 71° East 494 568 37,000  Level FlightAware ADS-B
Tue 07:43:04 PM 15.3970 106.0550 71° East 494 568 37,000  Level FlightAware ADS-B
Tue 07:43:47 PM 15.4390 106.1820 71° East 497 572 37,000  Level FlightAware ADS-B
Tue 07:44:35 PM 15.4760 106.2920 71° East 498 573 37,000  Level FlightAware ADS-B
Tue 07:45:32 PM 15.5150 106.4100 71° East 498 573 37,000  Level FlightAware ADS-B
Tue 07:46:08 PM 15.5370 106.4790 72° East 498 573 37,000  Level FlightAware ADS-B
Tue 07:46:56 PM 15.5680 106.5720 71° East 498 573 37,000  Level FlightAware ADS-B
Tue 07:47:32 PM 15.5910 106.6410 71° East 498 573 37,000  Level FlightAware ADS-B
Tue 07:48:20 PM 15.6220 106.7330 71° East 498 573 37,000  Level FlightAware ADS-B
Tue 07:48:56 PM 15.6450 106.8020 71° East 498 573 37,000  Level FlightAware ADS-B
Tue 07:49:35 PM 15.6970 106.9690 72° East 495 570 37,000  Level FlightAware ADS-B
Tue 07:50:12 PM 15.7210 107.0410 71° East 494 568 37,000  Level FlightAware ADS-B
Tue 07:51:01 PM 15.7520 107.1350 71° East 494 568 37,000  Level FlightAware ADS-B
Tue 07:51:37 PM 15.7750 107.2030 71° East 494 568 37,000  Level FlightAware ADS-B
Tue 07:52:13 PM 15.7980 107.2720 71° East 494 568 37,000  Level FlightAware ADS-B
Tue 07:53:02 PM 15.8290 107.3660 71° East 494 568 37,000  Level FlightAware ADS-B
Tue 07:53:36 PM 15.8500 107.4310 71° East 494 568 37,000  Level FlightAware ADS-B
Tue 07:54:24 PM 15.8810 107.5220 70° East 494 568 37,000  Level FlightAware ADS-B
Tue 07:55:00 PM 15.9030 107.5910 72° East 494 568 37,000  Level FlightAware ADS-B
Tue 07:55:48 PM 15.9340 107.6830 71° East 494 568 37,000  Level FlightAware ADS-B
Tue 07:56:24 PM 15.9570 107.7510 71° East 494 568 37,000  Level FlightAware ADS-B
Tue 07:57:00 PM 15.9790 107.8200 72° East 494 568 37,000  Level FlightAware ADS-B
Tue 07:57:50 PM 16.0110 107.9160 71° East 494 568 37,000  Level FlightAware ADS-B
Tue 07:58:38 PM 16.0410 108.0070 71° East 494 568 37,000  Level FlightAware ADS-B
Tue 07:59:14 PM 16.0640 108.0760 71° East 494 568 37,000  Level FlightAware ADS-B
Tue 08:01:00 PM 16.2092 108.2524 49° Northeast  Level Estimated
Tue 08:02:00 PM 16.2913 108.3524 49° Northeast  Level Estimated
Tue 08:03:00 PM 16.3734 108.4525 49° Northeast  Level Estimated
Tue 08:04:00 PM 16.4554 108.5526 49° Northeast  Level Estimated
Tue 08:05:00 PM 16.5374 108.6528 50° Northeast  Level Estimated
Tue 08:06:00 PM 16.6193 108.7532 50° Northeast  Level Estimated
Tue 08:07:00 PM 16.7012 108.8536 50° Northeast  Level Estimated
Tue 08:08:00 PM 16.7830 108.9541 50° Northeast  Level Estimated
Tue 08:09:00 PM 16.8648 109.0546 50° Northeast  Level Estimated
Tue 08:10:00 PM 16.9465 109.1553 50° Northeast  Level Estimated
Tue 08:11:00 PM 17.0282 109.2561 50° Northeast  Level Estimated
Tue 08:12:00 PM 17.1098 109.3569 50° Northeast  Level Estimated
Tue 08:13:00 PM 17.1914 109.4578 50° Northeast  Level Estimated
Tue 08:14:00 PM 17.2729 109.5588 50° Northeast  Level Estimated
Tue 08:15:00 PM 17.3544 109.6600 50° Northeast  Level Estimated
Tue 08:16:00 PM 17.4359 109.7611 50° Northeast  Level Estimated
Tue 08:17:00 PM 17.5172 109.8624 50° Northeast  Level Estimated
Tue 08:18:00 PM 17.5986 109.9638 50° Northeast  Level Estimated
Tue 08:19:00 PM 17.6798 110.0653 50° Northeast  Level Estimated
Tue 08:20:00 PM 17.7611 110.1668 50° Northeast  Level Estimated
Tue 08:21:00 PM 17.8423 110.2685 50° Northeast  Level Estimated
Tue 08:22:00 PM 17.9234 110.3702 50° Northeast  Level Estimated
Tue 08:23:00 PM 18.0044 110.4721 50° Northeast  Level Estimated
Tue 08:24:00 PM 18.0854 110.5740 50° Northeast  Level Estimated
Tue 08:25:00 PM 18.1664 110.6760 50° Northeast  Level Estimated
Tue 08:26:00 PM 18.2473 110.7782 50° Northeast  Level Estimated
Tue 08:27:00 PM 18.3282 110.8804 50° Northeast  Level Estimated
Tue 08:28:00 PM 18.4090 110.9827 50° Northeast  Level Estimated
Tue 08:29:00 PM 18.4897 111.0851 50° Northeast  Level Estimated
Tue 08:30:00 PM 18.5704 111.1876 50° Northeast  Level Estimated
Tue 08:31:00 PM 18.6510 111.2902 50° Northeast  Level Estimated
Tue 08:32:00 PM 18.7316 111.3929 50° Northeast  Level Estimated
Tue 08:33:00 PM 18.8121 111.4957 50° Northeast  Level Estimated
Tue 08:34:00 PM 18.8926 111.5986 50° Northeast  Level Estimated
Tue 08:35:00 PM 18.9730 111.7016 50° Northeast  Level Estimated
Tue 08:36:00 PM 19.0534 111.8047 50° Northeast  Level Estimated
Tue 08:37:00 PM 19.1336 111.9079 51° Northeast  Level Estimated
Tue 08:38:00 PM 19.2139 112.0111 51° Northeast  Level Estimated
Tue 08:39:00 PM 19.2941 112.1145 51° Northeast  Level Estimated
Tue 08:40:00 PM 19.3742 112.2180 51° Northeast  Level Estimated
Tue 08:41:00 PM 19.4543 112.3216 51° Northeast  Level Estimated
Tue 08:42:00 PM 19.5343 112.4253 51° Northeast  Level Estimated
Tue 08:43:00 PM 19.6142 112.5291 51° Northeast  Level Estimated
Tue 08:44:00 PM 19.6941 112.6330 51° Northeast  Level Estimated
Tue 08:45:00 PM 19.7739 112.7371 51° Northeast  Level Estimated
Tue 08:46:00 PM 19.8536 112.8412 51° Northeast  Level Estimated
Tue 08:47:00 PM 19.9333 112.9454 51° Northeast  Level Estimated
Tue 08:48:00 PM 20.0130 113.0497 51° Northeast  Level Estimated
Tue 08:49:00 PM 20.0926 113.1541 51° Northeast  Level Estimated
Tue 08:50:00 PM 20.1721 113.2587 51° Northeast  Level Estimated
Tue 08:50:12 PM 19.7040 114.4990 51° Northeast 505 581 37,000  Level FlightAware ADS-B
Tue 08:50:49 PM 19.7440 114.5820 63° Northeast 504 580 37,000  Level FlightAware ADS-B
Tue 08:51:00 PM 20.2516 113.3633 51° Northeast  Level Estimated
Tue 08:51:35 PM 19.7950 114.6830 62° Northeast 503 579 37,000  Level FlightAware ADS-B
Tue 08:52:15 PM 19.8390 114.7720 62° Northeast 501 577 37,000  Level FlightAware ADS-B
Tue 08:52:53 PM 19.8750 114.8440 62° Northeast 500 575 37,000  Level FlightAware ADS-B
Tue 08:53:33 PM 19.9120 114.9180 62° Northeast 500 575 37,000  Level FlightAware ADS-B
Tue 08:54:09 PM 19.9460 114.9840 61° Northeast 500 575 37,000  Level FlightAware ADS-B
Tue 08:54:59 PM 19.9920 115.0760 62° Northeast 500 575 37,000  Level FlightAware ADS-B
Tue 08:55:35 PM 20.0250 115.1430 62° Northeast 500 575 37,000  Level FlightAware ADS-B
Tue 08:56:11 PM 20.0910 115.2780 62° Northeast 37,000  Level FlightAware ADS-B
Tue 08:56:56 PM 20.1350 115.3670 62° Northeast 502 578 37,000  Level FlightAware ADS-B
Tue 08:57:32 PM 20.1690 115.4340 62° Northeast 502 578 37,000  Level FlightAware ADS-B
Tue 08:58:20 PM 20.2130 115.5230 62° Northeast 502 578 37,000  Level FlightAware ADS-B
Tue 08:58:57 PM 20.2480 115.5920 62° Northeast 502 578 37,000  Level FlightAware ADS-B
Tue 08:59:45 PM 20.2920 115.6810 62° Northeast 502 578 37,000  Level FlightAware ADS-B
Tue 09:00:21 PM 20.3250 115.7480 62° Northeast 502 578 37,000  Level FlightAware ADS-B
Tue 09:00:57 PM 20.3590 115.8150 62° Northeast 502 578 37,000  Level FlightAware ADS-B
Tue 09:01:45 PM 20.4030 115.9040 62° Northeast 502 578 37,000  Level FlightAware ADS-B
Tue 09:02:21 PM 20.4370 115.9710 62° Northeast 502 578 37,000  Level FlightAware ADS-B
Tue 09:02:57 PM 20.4700 116.0380 62° Northeast 502 578 37,000  Level FlightAware ADS-B
Tue 09:03:45 PM 20.5140 116.1280 62° Northeast 502 578 37,000  Level FlightAware ADS-B
Tue 09:04:21 PM 20.5480 116.1950 62° Northeast 502 578 37,000  Level FlightAware ADS-B
Tue 09:05:10 PM 20.5930 116.2860 62° Northeast 502 578 37,000  Level FlightAware ADS-B
Tue 09:05:46 PM 20.6270 116.3530 62° Northeast 502 578 37,000  Level FlightAware ADS-B
Tue 09:08:00 PM 20.8103 116.5799 49° Northeast  Level Estimated
Tue 09:09:00 PM 20.8923 116.6816 49° Northeast  Level Estimated
Tue 09:10:00 PM 20.9743 116.7835 49° Northeast  Level Estimated
Tue 09:11:00 PM 21.0561 116.8855 49° Northeast  Level Estimated
Tue 09:12:00 PM 21.1379 116.9876 49° Northeast  Level Estimated
Tue 09:13:00 PM 21.2197 117.0898 49° Northeast  Level Estimated
Tue 09:14:00 PM 21.3014 117.1921 49° Northeast  Level Estimated
Tue 09:15:00 PM 21.3830 117.2945 49° Northeast  Level Estimated
Tue 09:15:35 PM 21.2780 117.9270 49° Northeast 518 596 37,000  Level FlightAware ADS-B
Tue 09:16:18 PM 21.3060 118.0360 75° East 518 596 37,000  Level FlightAware ADS-B
Tue 09:17:11 PM 21.3380 118.1600 74° East 517 595 37,000  Level FlightAware ADS-B
Tue 09:17:52 PM 21.3620 118.2560 75° East 516 594 37,000  Level FlightAware ADS-B
Tue 09:18:30 PM 21.3840 118.3360 74° East 516 594 37,000  Level FlightAware ADS-B
Tue 09:19:15 PM 21.4120 118.4540 76° East 516 594 37,000  Level FlightAware ADS-B
Tue 09:19:58 PM 21.4360 118.5670 77° East 515 593 37,000  Level FlightAware ADS-B
Tue 09:20:37 PM 21.4590 118.6710 77° East 514 592 37,000  Level FlightAware ADS-B
Tue 09:21:19 PM 21.4840 118.7880 77° East 515 593 37,000  Level FlightAware ADS-B
Tue 09:21:58 PM 21.5010 118.8650 77° East 515 593 37,000  Level FlightAware ADS-B
Tue 09:22:40 PM 21.5250 118.9770 77° East 515 593 37,000  Level FlightAware ADS-B
Tue 09:23:22 PM 21.5470 119.0790 77° East 514 592 37,000  Level FlightAware ADS-B
Tue 09:23:58 PM 21.5660 119.1660 77° East 514 592 37,000  Level FlightAware ADS-B
Tue 09:24:41 PM 21.5900 119.2780 77° East 511 588 37,000  Level FlightAware ADS-B
Tue 09:25:20 PM 21.6110 119.3740 77° East 510 587 37,000  Level FlightAware ADS-B
Tue 09:26:01 PM 21.6320 119.4730 77° East 510 587 37,000  Level FlightAware ADS-B
Tue 09:26:40 PM 21.6530 119.5720 77° East 509 586 37,000  Level FlightAware ADS-B
Tue 09:27:21 PM 21.6740 119.6710 77° East 511 588 37,000  Level FlightAware ADS-B
Tue 09:28:01 PM 21.6940 119.7680 77° East 513 590 37,000  Level FlightAware ADS-B
Tue 09:28:48 PM 21.7200 119.8900 77° East 514 592 37,000  Level FlightAware ADS-B
Tue 09:29:27 PM 21.7400 119.9850 77° East 515 593 37,000  Level FlightAware ADS-B
Tue 09:30:10 PM 21.7630 120.0920 77° East 513 590 37,000  Level FlightAware ADS-B
Tue 09:30:54 PM 21.7870 120.2000 77° East 509 586 37,000  Level FlightAware ADS-B
Tue 09:31:31 PM 21.8080 120.2940 76° East 506 582 37,000  Level FlightAware ADS-B
Tue 09:32:17 PM 21.8330 120.4090 77° East 503 579 37,000  Level FlightAware ADS-B
Tue 09:32:59 PM 21.8550 120.5060 76° East 502 578 37,000  Level FlightAware ADS-B
Tue 09:33:41 PM 21.8770 120.6080 77° East 500 575 37,000  Level FlightAware ADS-B
Tue 09:34:22 PM 21.8990 120.7070 77° East 500 575 37,000  Level FlightAware ADS-B
Tue 09:35:03 PM 21.9210 120.8040 76° East 500 575 37,000  Level FlightAware ADS-B
Tue 09:35:44 PM 21.9660 120.9010 63° Northeast 498 573 37,000  Level FlightAware ADS-B
Tue 09:36:25 PM 22.0180 120.9830 56° Northeast 497 572 37,000  Level FlightAware ADS-B
Tue 09:37:22 PM 22.0950 121.0980 54° Northeast 497 572 37,000  Level FlightAware ADS-B
Tue 09:38:03 PM 22.1490 121.1790 54° Northeast 496 571 37,000  Level FlightAware ADS-B
Tue 09:38:44 PM 22.2030 121.2590 54° Northeast 496 571 37,000  Level FlightAware ADS-B
Tue 09:39:34 PM 22.2700 121.3630 55° Northeast 495 570 37,000  Level FlightAware ADS-B
Tue 09:40:21 PM 22.3310 121.4560 55° Northeast 494 568 37,000  Level FlightAware ADS-B
Tue 09:41:07 PM 22.3980 121.5600 55° Northeast 492 566 37,000  Level FlightAware ADS-B
Tue 09:41:47 PM 22.4510 121.6410 55° Northeast 491 565 37,000  Level FlightAware ADS-B
Tue 09:42:33 PM 22.5120 121.7360 55° Northeast 491 565 37,000  Level FlightAware ADS-B
Tue 09:43:24 PM 22.5710 121.8260 55° Northeast 490 564 37,000  Level FlightAware ADS-B
Tue 09:44:05 PM 22.6200 121.9020 55° Northeast 489 563 37,000  Level FlightAware ADS-B
Tue 09:44:59 PM 22.6930 122.0150 55° Northeast 488 562 37,000  Level FlightAware ADS-B
Tue 09:45:38 PM 22.7460 122.0970 55° Northeast 487 560 37,000  Level FlightAware ADS-B
Tue 09:46:20 PM 22.8000 122.1810 55° Northeast 486 559 37,000  Level FlightAware ADS-B
Tue 09:47:03 PM 22.8550 122.2670 55° Northeast 484 557 37,000  Level FlightAware ADS-B
Tue 09:47:48 PM 22.9180 122.3640 55° Northeast 483 556 37,000  Level FlightAware ADS-B
Tue 09:48:37 PM 22.9770 122.4560 55° Northeast 483 556 37,000  Level FlightAware ADS-B
Tue 09:49:25 PM 23.0290 122.5370 55° Northeast 483 556 37,000  Level FlightAware ADS-B
Tue 09:50:01 PM 23.0680 122.5980 55° Northeast 483 556 37,000  Level FlightAware ADS-B
Tue 09:50:37 PM 23.1070 122.6580 55° Northeast 483 556 37,000  Level FlightAware ADS-B
Tue 09:51:50 PM 23.1870 122.7820 55° Northeast 483 556 37,000  Level FlightAware ADS-B
Tue 09:52:26 PM 23.2260 122.8430 55° Northeast 483 556 37,000  Level FlightAware ADS-B
Tue 09:53:14 PM 23.2780 122.9240 55° Northeast 483 556 37,000  Level FlightAware ADS-B
Tue 09:53:50 PM 23.3180 122.9850 54° Northeast 483 556 37,000  Level FlightAware ADS-B
Tue 09:54:38 PM 23.3700 123.0670 55° Northeast 483 556 37,000  Level FlightAware ADS-B
Tue 09:55:14 PM 23.4090 123.1280 55° Northeast 483 556 37,000  Level FlightAware ADS-B
Tue 09:56:15 PM 23.4760 123.2310 55° Northeast 483 556 37,000  Level FlightAware ADS-B
Tue 09:56:51 PM 23.5150 123.2920 55° Northeast 483 556 37,000  Level FlightAware ADS-B
Tue 09:57:28 PM 23.5550 123.3550 55° Northeast 483 556 37,000  Level FlightAware ADS-B
Tue 09:58:04 PM 23.5940 123.4160 55° Northeast 483 556 37,000  Level FlightAware ADS-B
Tue 10:00:00 PM 23.7601 123.6071 46° Northeast  Level Estimated
Tue 10:01:00 PM 23.8459 123.7062 47° Northeast  Level Estimated
Tue 10:02:00 PM 23.9316 123.8054 47° Northeast  Level Estimated
Tue 10:03:00 PM 24.0173 123.9047 47° Northeast  Level Estimated
Tue 10:04:00 PM 24.1029 124.0042 47° Northeast  Level Estimated
Tue 10:05:00 PM 24.1884 124.1038 47° Northeast  Level Estimated
Tue 10:06:00 PM 24.2739 124.2035 47° Northeast  Level Estimated
Tue 10:07:00 PM 24.3594 124.3034 47° Northeast  Level Estimated
Tue 10:08:00 PM 24.4447 124.4034 47° Northeast  Level Estimated
Tue 10:09:00 PM 24.5300 124.5035 47° Northeast  Level Estimated
Tue 10:10:00 PM 24.6152 124.6038 47° Northeast  Level Estimated
Tue 10:11:00 PM 24.7004 124.7042 47° Northeast  Level Estimated
Tue 10:12:00 PM 24.7855 124.8047 47° Northeast  Level Estimated
Tue 10:13:00 PM 24.8705 124.9054 47° Northeast  Level Estimated
Tue 10:14:00 PM 24.9554 125.0062 47° Northeast  Level Estimated
Tue 10:15:00 PM 25.0403 125.1072 47° Northeast  Level Estimated
Tue 10:16:00 PM 25.1251 125.2083 47° Northeast  Level Estimated
Tue 10:17:00 PM 25.2099 125.3095 47° Northeast  Level Estimated
Tue 10:18:00 PM 25.2946 125.4109 47° Northeast  Level Estimated
Tue 10:19:00 PM 25.3792 125.5124 47° Northeast  Level Estimated
Tue 10:20:00 PM 25.4637 125.6141 47° Northeast  Level Estimated
Tue 10:21:00 PM 25.5482 125.7159 47° Northeast  Level Estimated
Tue 10:22:00 PM 25.6326 125.8178 47° Northeast  Level Estimated
Tue 10:23:00 PM 25.7169 125.9199 47° Northeast  Level Estimated
Tue 10:24:00 PM 25.8012 126.0222 48° Northeast  Level Estimated
Tue 10:25:00 PM 25.8854 126.1245 48° Northeast  Level Estimated
Tue 10:25:29 PM 26.0020 126.7480 48° Northeast 479 551 37,000  Level FlightAware ADS-B
Tue 10:26:10 PM 26.0620 126.8310 51° Northeast 479 551 37,000  Level FlightAware ADS-B
Tue 10:26:54 PM 26.1210 126.9130 51° Northeast 479 551 37,000  Level FlightAware ADS-B
Tue 10:27:34 PM 26.1790 126.9920 51° Northeast 476 548 37,000  Level FlightAware ADS-B
Tue 10:28:14 PM 26.2340 127.0680 51° Northeast 477 549 37,000  Level FlightAware ADS-B
Tue 10:28:54 PM 26.2890 127.1450 51° Northeast 477 549 37,000  Level FlightAware ADS-B
Tue 10:29:34 PM 26.3460 127.2230 51° Northeast 478 550 37,000  Level FlightAware ADS-B
Tue 10:30:14 PM 26.4010 127.3000 51° Northeast 478 550 37,000  Level FlightAware ADS-B
Tue 10:30:59 PM 26.4590 127.3810 51° Northeast 477 549 37,000  Level FlightAware ADS-B
Tue 10:31:34 PM 26.5120 127.4540 51° Northeast 476 548 37,000  Level FlightAware ADS-B
Tue 10:32:14 PM 26.5660 127.5310 52° Northeast 475 547 37,000  Level FlightAware ADS-B
Tue 10:32:59 PM 26.6280 127.6180 51° Northeast 476 548 37,000  Level FlightAware ADS-B
Tue 10:33:39 PM 26.6830 127.6950 51° Northeast 476 548 37,000  Level FlightAware ADS-B
Tue 10:34:19 PM 26.7340 127.7660 51° Northeast 476 548 37,000  Level FlightAware ADS-B
Tue 10:34:59 PM 26.7930 127.8490 51° Northeast 475 547 37,000  Level FlightAware ADS-B
Tue 10:35:44 PM 26.8530 127.9330 51° Northeast 474 545 37,000  Level FlightAware ADS-B
Tue 10:36:34 PM 26.9200 128.0290 52° Northeast 472 543 37,000  Level FlightAware ADS-B
Tue 10:37:29 PM 26.9970 128.1370 51° Northeast 471 542 37,000  Level FlightAware ADS-B
Tue 10:38:19 PM 27.0590 128.2260 52° Northeast 471 542 37,000  Level FlightAware ADS-B
Tue 10:38:59 PM 27.1120 128.3000 51° Northeast 472 543 37,000  Level FlightAware ADS-B
Tue 10:39:54 PM 27.1870 128.4080 52° Northeast 472 543 37,000  Level FlightAware ADS-B
Tue 10:40:34 PM 27.2430 128.4870 51° Northeast 472 543 37,000  Level FlightAware ADS-B
Tue 10:41:13 PM 27.2880 128.5510 52° Northeast 472 543 37,000  Level FlightAware ADS-B
Tue 10:42:01 PM 27.3590 128.6540 52° Northeast 475 547 37,000  Level FlightAware ADS-B
Tue 10:42:39 PM 27.4120 128.7300 52° Northeast 476 548 37,000  Level FlightAware ADS-B
Tue 10:43:37 PM 27.4860 128.8350 52° Northeast 476 548 37,000  Level FlightAware ADS-B
Tue 10:44:14 PM 27.5280 128.8970 53° Northeast 476 548 37,000  Level FlightAware ADS-B
Tue 10:44:50 PM 27.5700 128.9570 52° Northeast 476 548 37,000  Level FlightAware ADS-B
Tue 10:45:50 PM 27.6390 129.0570 52° Northeast 476 548 37,000  Level FlightAware ADS-B
Tue 10:46:26 PM 27.6800 129.1170 52° Northeast 476 548 37,000  Level FlightAware ADS-B
Tue 10:47:14 PM 27.7360 129.1970 52° Northeast 476 548 37,000  Level FlightAware ADS-B
Tue 10:47:50 PM 27.7770 129.2570 52° Northeast 476 548 37,000  Level FlightAware ADS-B
Tue 10:48:38 PM 27.8330 129.3370 52° Northeast 476 548 37,000  Level FlightAware ADS-B
Tue 10:49:14 PM 27.8740 129.3970 52° Northeast 476 548 37,000  Level FlightAware ADS-B
Tue 10:50:02 PM 27.9290 129.4770 52° Northeast 476 548 37,000  Level FlightAware ADS-B
Tue 10:50:50 PM 27.9850 129.5570 52° Northeast 476 548 37,000  Level FlightAware ADS-B
Tue 10:51:26 PM 28.0260 129.6170 52° Northeast 476 548 37,000  Level FlightAware ADS-B
Tue 10:52:14 PM 28.0810 129.6980 52° Northeast 476 548 37,000  Level FlightAware ADS-B
Tue 10:52:50 PM 28.1230 129.7580 52° Northeast 476 548 37,000 47 Level FlightAware ADS-B
Tue 10:55:00 PM 28.3072 129.9827 47° Northeast  Level Estimated
Tue 10:56:00 PM 28.3921 130.0866 47° Northeast  Level Estimated
Tue 10:57:00 PM 28.4770 130.1907 47° Northeast  Level Estimated
Tue 10:58:00 PM 28.5617 130.2950 47° Northeast  Level Estimated
Tue 10:59:00 PM 28.6464 130.3994 47° Northeast  Level Estimated
Tue 11:00:00 PM 28.7310 130.5041 47° Northeast  Level Estimated
Tue 11:01:00 PM 28.8155 130.6089 47° Northeast  Level Estimated
Tue 11:02:00 PM 28.8999 130.7138 47° Northeast  Level Estimated
Tue 11:03:00 PM 28.9843 130.8189 47° Northeast  Level Estimated
Tue 11:04:00 PM 29.0685 130.9242 48° Northeast  Level Estimated
Tue 11:05:00 PM 29.1527 131.0297 48° Northeast  Level Estimated
Tue 11:06:00 PM 29.2368 131.1353 48° Northeast  Level Estimated
Tue 11:07:00 PM 29.3208 131.2412 48° Northeast  Level Estimated
Tue 11:08:00 PM 29.4047 131.3472 48° Northeast  Level Estimated
Tue 11:09:00 PM 29.4886 131.4533 48° Northeast  Level Estimated
Tue 11:10:00 PM 29.5723 131.5597 48° Northeast  Level Estimated
Tue 11:11:00 PM 29.6558 131.6659 48° Northeast  Level Estimated
Tue 11:12:00 PM 29.7391 131.7722 48° Northeast  Level Estimated
Tue 11:13:00 PM 29.8224 131.8788 48° Northeast  Level Estimated
Tue 11:14:00 PM 29.9056 131.9855 48° Northeast  Level Estimated
Tue 11:15:00 PM 29.9886 132.0925 48° Northeast  Level Estimated
Tue 11:16:00 PM 30.0716 132.1995 48° Northeast  Level Estimated
Tue 11:17:00 PM 30.1546 132.3068 48° Northeast  Level Estimated
Tue 11:18:00 PM 30.2374 132.4143 48° Northeast  Level Estimated
Tue 11:19:00 PM 30.3201 132.5219 48° Northeast  Level Estimated
Tue 11:20:00 PM 30.4028 132.6297 48° Northeast  Level Estimated
Tue 11:21:00 PM 30.4853 132.7377 48° Northeast  Level Estimated
Tue 11:22:00 PM 30.5678 132.8459 48° Northeast  Level Estimated
Tue 11:23:00 PM 30.6502 132.9542 49° Northeast  Level Estimated
Tue 11:24:00 PM 30.7325 133.0628 49° Northeast  Level Estimated
Tue 11:25:00 PM 30.8147 133.1715 49° Northeast  Level Estimated
Tue 11:26:00 PM 30.8968 133.2804 49° Northeast  Level Estimated
Tue 11:27:00 PM 30.9788 133.3896 49° Northeast  Level Estimated
Tue 11:28:00 PM 31.0607 133.4988 49° Northeast  Level Estimated
Tue 11:29:00 PM 31.1426 133.6083 49° Northeast  Level Estimated
Tue 11:30:00 PM 31.2243 133.7180 49° Northeast  Level Estimated
Tue 11:31:00 PM 31.3060 133.8279 49° Northeast  Level Estimated
Tue 11:32:00 PM 31.3875 133.9379 49° Northeast  Level Estimated
Tue 11:33:00 PM 31.4690 134.0481 49° Northeast  Level Estimated
Tue 11:34:00 PM 31.5504 134.1586 49° Northeast  Level Estimated
Tue 11:34:31 PM 31.6890 135.0330 49° Northeast 481 554 39,000  Level FlightAware ADS-B
Tue 11:35:00 PM 31.6316 134.2692 49° Northeast  Level Estimated
Tue 11:35:10 PM 31.7340 135.1020 53° Northeast 481 554 39,000  Level FlightAware ADS-B
Tue 11:36:14 PM 31.8230 135.2370 52° Northeast 483 556 39,000  Level FlightAware ADS-B
Tue 11:37:08 PM 31.9080 135.3660 52° Northeast 484 557 39,000  Level FlightAware ADS-B
Tue 11:37:48 PM 31.9620 135.4470 52° Northeast 484 557 39,000  Level FlightAware ADS-B
Tue 11:38:33 PM 32.0250 135.5430 52° Northeast 484 557 39,000  Level FlightAware ADS-B
Tue 11:39:08 PM 32.0740 135.6190 53° Northeast 484 557 39,000  Level FlightAware ADS-B
Tue 11:39:53 PM 32.1370 135.7150 52° Northeast 485 558 39,000  Level FlightAware ADS-B
Tue 11:40:33 PM 32.1880 135.7930 52° Northeast 486 559 39,000  Level FlightAware ADS-B
Tue 11:41:18 PM 32.2480 135.8860 53° Northeast 488 562 39,000  Level FlightAware ADS-B
Tue 11:41:59 PM 32.3030 135.9710 53° Northeast 490 564 39,000  Level FlightAware ADS-B
Tue 11:42:36 PM 32.3550 136.0520 53° Northeast 484 557 39,000  Level FlightAware ADS-B
Tue 11:43:36 PM 32.4370 136.1770 52° Northeast 484 557 39,000  Level FlightAware ADS-B
Tue 11:44:16 PM 32.4840 136.2560 55° Northeast 483 556 39,000  Level FlightAware ADS-B
Tue 11:45:26 PM 32.5730 136.4280 58° Northeast 487 560 39,000  Level FlightAware ADS-B
Tue 11:47:01 PM 32.6880 136.6480 58° Northeast 485 558 39,000 -89 Level FlightAware ADS-B
Tue 11:47:41 PM 32.7330 136.7330 58° Northeast 478 550 38,800 -815 Descending FlightAware ADS-B
Tue 11:48:22 PM 32.7800 136.8240 58° Northeast 487 560 37,900 -1,440 Descending FlightAware ADS-B
Tue 11:48:56 PM 32.8220 136.9050 58° Northeast 490 564 37,000 -1,519 Descending FlightAware ADS-B
Tue 11:49:41 PM 32.8780 137.0140 59° Northeast 500 575 35,900 -1,341 Descending FlightAware ADS-B
Tue 11:50:21 PM 32.9250 137.1040 58° Northeast 500 575 35,100 -675 Descending FlightAware ADS-B
Tue 11:51:01 PM 32.9730 137.1980 59° Northeast 501 577 35,000 -75 Descending FlightAware ADS-B
Tue 11:51:41 PM 33.0220 137.2940 59° Northeast 503 579 35,000  Level FlightAware ADS-B
Tue 11:52:21 PM 33.0690 137.3840 58° Northeast 503 579 35,000  Level FlightAware ADS-B
Tue 11:53:01 PM 33.1210 137.4850 58° Northeast 503 579 35,000  Level FlightAware ADS-B
Tue 11:53:44 PM 33.1720 137.5880 59° Northeast 507 583 35,000  Level FlightAware ADS-B
Tue 11:54:23 PM 33.2190 137.6780 58° Northeast 506 582 35,000  Level FlightAware ADS-B
Tue 11:55:11 PM 33.2720 137.7830 59° Northeast 504 580 35,000  Level FlightAware ADS-B
Tue 11:55:43 PM 33.3160 137.8690 59° Northeast 503 579 35,000  Level FlightAware ADS-B
Tue 11:56:26 PM 33.3690 137.9770 60° Northeast 504 580 35,000  Level FlightAware ADS-B
Tue 11:57:13 PM 33.4250 138.0870 59° Northeast 503 579 35,000  Level FlightAware ADS-B
Tue 11:57:48 PM 33.4690 138.1750 59° Northeast 503 579 35,000  Level FlightAware ADS-B
Tue 11:58:33 PM 33.5210 138.2780 59° Northeast 502 578 35,000  Level FlightAware ADS-B
Tue 11:59:16 PM 33.5740 138.3850 59° Northeast 501 577 35,000  Level FlightAware ADS-B
Wed 12:00:01 AM 33.6240 138.4850 59° Northeast 500 575 35,000  Level FlightAware ADS-B
Wed 12:00:56 AM 33.6920 138.6240 60° Northeast 502 578 35,000  Level FlightAware ADS-B
Wed 12:01:31 AM 33.7320 138.7030 59° Northeast 503 579 35,000  Level FlightAware ADS-B
Wed 12:02:16 AM 33.7860 138.8140 60° Northeast 502 578 35,000  Level FlightAware ADS-B
Wed 12:02:54 AM 33.8260 138.8940 59° Northeast 486 559 35,000  Level FlightAware ADS-B
Wed 12:03:46 AM 33.8860 139.0180 60° Northeast 485 558 35,000  Level FlightAware ADS-B
Wed 12:04:18 AM 33.9210 139.0900 60° Northeast 484 557 35,000  Level FlightAware ADS-B
Wed 12:05:02 AM 33.9710 139.1920 59° Northeast 484 557 35,000  Level FlightAware ADS-B
Wed 12:05:41 AM 34.0160 139.2850 60° Northeast 484 557 35,000 -154 Level FlightAware ADS-B
Wed 12:06:20 AM 34.0580 139.3710 59° Northeast 479 551 34,800 -804 Descending FlightAware ADS-B
Wed 12:07:18 AM 34.1240 139.5060 59° Northeast 458 527 33,700 -1,260 Descending FlightAware ADS-B
Wed 12:08:00 AM 34.1700 139.5940 58° Northeast 450 518 32,700 -1,432 Descending FlightAware ADS-B
Wed 12:08:46 AM 34.2250 139.6970 57° Northeast 436 502 31,600 -1,465 Descending FlightAware ADS-B
Wed 12:09:26 AM 34.2680 139.7790 58° Northeast 433 498 30,600 -1,575 Descending FlightAware ADS-B
Wed 12:10:06 AM 34.3100 139.8600 58° Northeast 424 488 29,500 -1,744 Descending FlightAware ADS-B
Wed 12:10:52 AM 34.3550 139.9470 58° Northeast 413 475 28,100 -1,884 Descending FlightAware ADS-B
Wed 12:11:32 AM 34.3980 140.0300 58° Northeast 406 467 26,800 -2,000 Descending FlightAware ADS-B
Wed 12:12:13 AM 34.4380 140.1050 57° Northeast 402 463 25,400 -1,735 Descending FlightAware ADS-B
Wed 12:12:55 AM 34.4780 140.1850 59° Northeast 384 442 24,400 -1,463 Descending FlightAware ADS-B
Wed 12:13:35 AM 34.5160 140.2580 58° Northeast 372 428 23,400 -1,595 Descending FlightAware ADS-B
Wed 12:14:14 AM 34.5530 140.3290 58° Northeast 363 418 22,300 -1,714 Descending FlightAware ADS-B
Wed 12:14:59 AM 34.5920 140.4050 58° Northeast 351 404 21,000 -1,760 Descending FlightAware ADS-B
Wed 12:15:29 AM 34.6170 140.4540 58° Northeast 349 402 20,100 -1,973 Descending FlightAware ADS-B
Wed 12:16:12 AM 34.6560 140.5290 58° Northeast 349 402 18,600 -1,756 Descending FlightAware ADS-B
Wed 12:16:51 AM 34.6860 140.5890 59° Northeast 347 399 17,700 -1,714 Descending FlightAware ADS-B
Wed 12:17:36 AM 34.7280 140.6610 55° Northeast 342 394 16,200 -1,967 Descending FlightAware ADS-B
Wed 12:17:52 AM 34.7540 140.6780 28° Northeast 327 376 15,700 -1,636 Descending FlightAware ADS-B
Wed 12:18:31 AM 34.8090 140.6870 North 324 373 14,700 -1,404 Descending FlightAware ADS-B
Wed 12:19:26 AM 34.8890 140.6970 North 311 358 13,500 -1,157 Descending FlightAware ADS-B
Wed 12:19:54 AM 34.9290 140.7020 North 310 357 13,100 -818 Descending FlightAware ADS-B
Wed 12:20:32 AM 34.9930 140.7100 North 317 365 12,600 -759 Descending FlightAware ADS-B
Wed 12:21:13 AM 35.0460 140.7160 North 307 353 12,100 -741 Descending FlightAware ADS-B
Wed 12:21:53 AM 35.1080 140.7230 North 307 353 11,600 -456 Descending FlightAware ADS-B
Wed 12:22:32 AM 35.1680 140.7300 North 307 353 11,500 -304 Descending FlightAware ADS-B
Wed 12:23:12 AM 35.2270 140.7380 North 308 354 11,200 -212 Descending FlightAware ADS-B
Wed 12:23:57 AM 35.2920 140.7450 North 307 353 11,200  Level FlightAware ADS-B
Wed 12:24:37 AM 35.3500 140.7530 North 308 354 11,200 -282 Level FlightAware ADS-B
Wed 12:25:22 AM 35.4150 140.7610 North 289 333 10,800 -635 Descending FlightAware ADS-B
Wed 12:26:02 AM 35.4680 140.7670 North 279 321 10,300 -923 Descending FlightAware ADS-B
Wed 12:26:27 AM 35.4990 140.7710 North 276 318 9,800 -1,091 Descending FlightAware ADS-B
Wed 12:26:57 AM 35.5380 140.7760 North 259 298 9,300 -873 Descending FlightAware ADS-B
Wed 12:27:22 AM 35.5670 140.7800 North 246 283 9,000 -1,067 Descending FlightAware ADS-B
Wed 12:27:42 AM 35.5920 140.7830 North 241 277 8,500 -960 Descending FlightAware ADS-B
Wed 12:28:12 AM 35.6270 140.7870 North 242 278 8,200 -300 Descending FlightAware ADS-B
Wed 12:28:42 AM 35.6600 140.7910 North 244 281 8,200  Level FlightAware ADS-B
Wed 12:29:08 AM 35.6890 140.7950 North 247 284 8,200 -943 Level FlightAware ADS-B
Wed 12:29:52 AM 35.7380 140.7860 352° North 241 277 7,100 -1,378 Descending FlightAware ADS-B
Wed 12:30:22 AM 35.7610 140.7640 322° Northwest 233 268 6,500 -794 Descending FlightAware ADS-B
Wed 12:31:00 AM 35.8010 140.7630 359° North 243 280 6,200 -237 Descending FlightAware ADS-B
Wed 12:31:38 AM 35.8220 140.7290 307° West 223 257 6,200  Level FlightAware ADS-B
Wed 12:31:58 AM 35.8190 140.6990 263° West 212 244 6,200  Level FlightAware ADS-B
Wed 12:32:22 AM 35.8170 140.6710 265° West 210 242 6,200  Level FlightAware ADS-B
Wed 12:32:46 AM 35.8150 140.6420 265° West 212 244 6,200  Level FlightAware ADS-B
Wed 12:33:12 AM 35.8130 140.6110 265° West 211 243 6,200  Level FlightAware ADS-B
Wed 12:33:42 AM 35.8100 140.5750 264° West 211 243 6,200 -448 Level FlightAware ADS-B
Wed 12:34:19 AM 35.8180 140.5330 283° West 214 246 5,700 -1,038 Descending FlightAware ADS-B
Wed 12:34:34 AM 35.8320 140.5230 330° Northwest 219 252 5,300 -1,111 Descending FlightAware ADS-B
Wed 12:34:46 AM 35.8420 140.5180 338° Northwest 213 245 5,200 -1,000 Descending FlightAware ADS-B
Wed 12:35:16 AM 35.8700 140.5040 338° Northwest 207 238 4,600 -1,034 Descending FlightAware ADS-B
Wed 12:35:44 AM 35.8940 140.4900 335° Northwest 214 246 4,200 -429 Descending FlightAware ADS-B
Wed 12:36:12 AM 35.9200 140.4760 336° Northwest 211 243 4,200  Level FlightAware ADS-B
Wed 12:36:24 AM 35.9310 140.4710 340° North 209 241 4,200  Level FlightAware ADS-B
Wed 12:36:53 AM 35.9560 140.4570 336° Northwest 207 238 4,200 -214 Level FlightAware ADS-B
Wed 12:37:20 AM 35.9790 140.4440 335° Northwest 185 213 4,000 -750 Descending FlightAware ADS-B
Wed 12:37:49 AM 36.0010 140.4310 334° Northwest 187 215 3,500 -1,091 Descending FlightAware ADS-B
Wed 12:38:04 AM 36.0110 140.4200 318° Northwest 183 211 3,200 -667 Descending FlightAware ADS-B
Wed 12:38:16 AM 36.0150 140.4090 294° West 180 207 3,200 250 Level FlightAware ADS-B
Wed 12:38:28 AM 36.0170 140.3970 282° West 178 205 3,300  Climbing FlightAware ADS-B
Wed 12:39:00 AM 36.0110 140.3640 257° West 184 212 3,200 -115 Descending FlightAware ADS-B
Wed 12:39:20 AM 36.0080 140.3440 260° West 178 205 3,200  Level FlightAware ADS-B
Wed 12:39:48 AM 35.9980 140.3190 244° Southwest 174 200 3,200  Level FlightAware ADS-B
Wed 12:40:16 AM 35.9820 140.2990 225° Southwest 173 199 3,200  Level FlightAware ADS-B
Wed 12:40:28 AM 35.9750 140.2910 223° Southwest 174 200 3,200 -643 Level FlightAware ADS-B
Wed 12:40:44 AM 35.9620 140.2860 197° South 180 207 2,900 -600 Descending FlightAware ADS-B
Wed 12:41:08 AM 35.9430 140.2890 173° South 171 197 2,800 -360 Descending FlightAware ADS-B
Wed 12:41:34 AM 35.9230 140.2930 171° South 171 197 2,600 -600 Descending FlightAware ADS-B
Wed 12:41:48 AM 35.9130 140.3000 150° Southeast 171 197 2,400 -429 Descending FlightAware ADS-B
Wed 12:42:16 AM 35.8940 140.3130 151° Southeast 164 189 2,300 -462 Descending FlightAware ADS-B
Wed 12:42:40 AM 35.8790 140.3240 149° Southeast 153 176 2,000 -778 Descending FlightAware ADS-B
Wed 12:43:10 AM 35.8620 140.3360 150° Southeast 137 158 1,600 -737 Descending FlightAware ADS-B
Wed 12:43:37 AM 35.8470 140.3470 149° Southeast 143 165 1,300 -643 Descending FlightAware ADS-B
Wed 12:44:06 AM 35.8300 140.3600 148° Southeast 144 166 1,000 -679 Descending FlightAware ADS-B
Wed 12:44:30 AM 35.8160 140.3700 150° Southeast 143 165 700 -714 Descending FlightAware ADS-B
Wed 12:44:48 AM 35.8070 140.3770 148° Southeast 143 165 500 -267 Descending FlightAware ADS-B
Wed 12:45:15 AM 35.7940 140.3870 148° Southeast 143 165 500  Level FlightAware ADS-B
Wed 12:47:00 AM 35.7647 140.3864 181° South  Level Estimated

Login

Don't have an account? Register now (free) for customized features, flight alerts, and more!